Tiempo atmosférico en la estación meteorológica de Abenójar, Ciudad Real (718 m.)



Fecha
DESCASC
Temp. máxima en grados centígrados (hora)
DESCASC
Temp. mínima en grados centígrados (hora)
DESCASC
Temp. media en grados centígrados
DESCASC
Racha de viento máxima en m/sg (hora)
DESCASC
Velocidad máxima media en intervalos de 10 minutos(hora)
DESCASC
Precipitaciones diarias en mm
DESCASC
Precipitaciones de 00:00 a 06:00 en mm
DESCASC
Precipitaciones de 06:00 a 12:00 en mm
DESCASC
Precipitaciones de 12:00 a 18:00 en mm
DESCASC
Precipitaciones de 18:00 a 24:00 en mm
DESCASC
16-06-2019 29.5 (17:00) 12.6 (07:30) 21.1 8.33 (20:50) 4.72 (20:10) 0 0 0 0 0
15-06-2019 25.3 (17:40) 7.8 (07:00) 16.5 7.22 (15:30) 3.89 (17:50) 0 0 0 0 0
14-06-2019 23 (17:10) 10.6 (07:00) 16.8 12.78 (17:00) 7.22 (19:50) 0 0 0 0 0
13-06-2019 28.1 (17:00) 10.3 (00:00) 19.2 9.17 (13:50) 5 (22:00) 0 0 0 0 0
12-06-2019 27 (18:30) 10.5 (00:00) 18.8 9.72 (17:50) 6.11 (05:30) 0 0 0 0 0
11-06-2019 24.1 (15:50) 11 (00:00) 17.6 10.56 (18:30) 6.11 (17:30) 0 0 0 0 0
10-06-2019 25.6 (17:30) 9.4 (00:00) 17.5 9.72 (18:10) 5.56 (17:40) 0 0 0 0 0
09-06-2019 25.9 (17:10) 12 (00:00) 18.9 11.39 (16:10) 6.67 (17:40) 0 0 0 0 0
08-06-2019 28.8 (16:00) 11.2 (00:00) 20 13.06 (15:20) 4.72 (09:00) 0 0 0 0 0
07-06-2019 22.7 (18:50) 9.9 (00:00) 16.3 11.67 (05:00) 7.78 (05:10) 0 0 0 0 0
06-06-2019 25.3 (17:00) 7.5 (00:00) 16.4 12.78 (19:00) 7.22 (19:50) 0 0 0 0 0
05-06-2019 20.3 (17:40) 9.3 (00:00) 14.8 14.44 (11:00) 7.5 (07:30) 0 0 0 0 0
04-06-2019 28.7 (17:40) 15.2 (00:00) 22 13.06 (15:00) 7.22 (20:50) 0 0 0 0 0
03-06-2019 33.2 (17:10) 16 (00:00) 24.6 11.39 (18:30) 6.39 (18:20) 0 0 0 0 0
02-06-2019 33.7 (18:30) 15.2 (00:00) 24.5 6.67 (16:10) 3.89 (16:10) 0 0 0 0 0
01-06-2019 31.8 (17:20) 14.6 (00:00) 23.2 9.17 (14:00) 5.28 (07:30) 0 0 0 0 0
31-05-2019 30.4 (17:20) 14.3 (00:00) 22.3 10.56 (13:50) 5.83 (09:30) 0 0 0 0 0
30-05-2019 29.1 (18:30) 13.5 (00:00) 21.3 9.72 (09:10) 6.67 (09:40) 0 0 0 0 0
29-05-2019 27.3 (18:00) 12.4 (00:00) 19.8 13.61 (08:20) 8.89 (08:40) 0 0 0 0 0
28-05-2019 29.7 (16:40) 15.8 (00:00) 22.8 9.17 (04:00) 6.67 (06:50) 0 0 0 0 0
27-05-2019 30 (17:30) 13.5 (00:00) 21.8 14.72 (17:30) 6.67 (17:20) 0 0 0 0 0
26-05-2019 26.7 (17:30) 12.2 (00:00) 19.5 9.44 (15:50) 4.44 (18:50) 0 0 0 0 0
25-05-2019 24.5 (17:50) 10.7 (00:00) 17.6 11.11 (13:10) 6.94 (13:10) 0 0 0 0 0
24-05-2019 25.5 (18:00) 13.5 (00:00) 19.5 10.28 (16:30) 5.28 (20:10) 0 0 0 0 0
23-05-2019 28.6 (17:00) 12.7 (00:00) 20.7 9.17 (17:20) 5.28 (15:30) 0 0 0 0 0
22-05-2019 27.7 (17:20) 11.1 (00:00) 19.4 6.94 (17:10) 4.44 (17:20) 0 0 0 0 0
21-05-2019 24.9 (17:40) 11.6 (07:50) 18.3 10 (16:40) 4.72 (18:30) 0 0 0 0 0

Gráficas

Temp. máximas Temp. mínimas Temp. medias Precipitaciones Rachas de viento máximas Velocidades máximas media en intervalos de 10 minutos

Datos horarios

Fecha y hora oficial Temperatura (ºC) Velocidad del viento (km/h) Dirección del viento Racha (km/h) Dirección de racha Precipitación (mm) Presión (hPa) Tendencia (hPa) Humedad (%)
2019-06-19 23:00:00 20.7 7 Noroeste 21 Noroeste 0 -- -- 48
2019-06-19 22:00:00 22.1 13 Noroeste 26 Noroeste 0 -- -- 44
2019-06-19 21:00:00 24.3 15 Noroeste 31 Noroeste 0 -- -- 40
2019-06-19 20:00:00 25.8 20 Noroeste 31 Oeste 0 -- -- 36
2019-06-19 19:00:00 26.8 18 Oeste 35 Oeste 0 -- -- 33
2019-06-19 18:00:00 26.8 16 Oeste 37 Oeste 0 -- -- 35
2019-06-19 17:00:00 27.1 22 Oeste 35 Oeste 0 -- -- 34
2019-06-19 16:00:00 26.8 16 Sudoeste 33 Oeste 0 -- -- 36
2019-06-19 15:00:00 25.8 16 Oeste -- -- -- -- -- 38
2019-06-19 14:00:00 25 13 Sudoeste 33 Oeste 0 -- -- 41
2019-06-19 13:00:00 23.5 14 Sudoeste 32 Sudoeste 0 -- -- 44
2019-06-19 12:00:00 22.7 9 Sudoeste 28 Oeste 0 -- -- 48
2019-06-19 11:00:00 20.7 11 Oeste 23 Oeste 0 -- -- 55
2019-06-19 10:00:00 18.8 10 Oeste 19 Oeste 0 -- -- 61
2019-06-19 09:00:00 17.6 11 Oeste 19 Oeste 0 -- -- 65
2019-06-19 08:00:00 15.3 2 Oeste 5 Oeste 0 -- -- 74
2019-06-19 07:00:00 13.6 0 Calma 5 Oeste 0 -- -- 80
2019-06-19 06:00:00 14.5 3 Sudoeste 8 Noroeste 0 -- -- 75
2019-06-19 05:00:00 15.9 5 Oeste 9 Oeste 0 -- -- 69
2019-06-19 04:00:00 16.7 5 Oeste 13 Oeste 0 -- -- 65
2019-06-19 03:00:00 17.6 5 Oeste 14 Oeste 0 -- -- 62
2019-06-19 02:00:00 17.2 2 Oeste 5 Sudoeste 0 -- -- 63
2019-06-19 01:00:00 18.9 0 Calma 8 Noroeste 0 -- -- 58
2019-06-19 00:00:00 20.5 7 Oeste 14 Oeste 0 -- -- 53
2019-06-18 23:00:00 21.8 8 Oeste 14 Oeste 0 -- -- 50
2019-06-18 22:00:00 23.6 8 Oeste 28 Sudoeste 0 -- -- 44
2019-06-18 21:00:00 -- 15 Sudoeste 35 Oeste 0 -- -- --
2019-06-18 20:00:00 27.7 18 Sudoeste 40 Oeste 0 -- -- 23
2019-06-18 19:00:00 28.8 19 Sudoeste 40 Oeste 0 -- -- 16
2019-06-18 18:00:00 28.9 21 Sudoeste 46 Oeste 0 -- -- 14
2019-06-18 17:00:00 29.5 20 Sudoeste 42 Oeste 0 -- -- 15
2019-06-18 16:00:00 28.9 17 Sudoeste 40 Sudoeste 0 -- -- 19
2019-06-18 15:00:00 28.6 17 Sudoeste 46 Oeste 0 -- -- 20
2019-06-18 14:00:00 28.1 15 Sudoeste 35 Sudoeste 0 -- -- 23
2019-06-18 13:00:00 26.7 18 Sudoeste 35 Sudoeste 0 -- -- 26
2019-06-18 12:00:00 25.2 14 Sudoeste 32 Oeste 0 -- -- 28
2019-06-18 11:00:00 24.1 12 Sudoeste 27 Sudoeste 0 -- -- 31
2019-06-18 10:00:00 22.4 10 Sudoeste 21 Oeste 0 -- -- 33
2019-06-18 09:00:00 20.7 8 Sudoeste 15 Sudoeste 0 -- -- 40
2019-06-18 08:00:00 18.1 6 Sudoeste 11 Sudoeste 0 -- -- 41
2019-06-18 07:00:00 17.9 8 Sudoeste 14 Sudoeste 0 -- -- 40
2019-06-18 06:00:00 18.7 9 Sudoeste 15 Sudoeste 0 -- -- 37
2019-06-18 05:00:00 17.1 7 Sudoeste 10 Sudoeste 0 -- -- 33
2019-06-18 04:00:00 17.8 4 Sudoeste 8 Sudoeste 0 -- -- 30
2019-06-18 03:00:00 20.2 5 Sudoeste 13 Sudoeste 0 -- -- 25
2019-06-18 02:00:00 21.2 6 Sudoeste 13 Sudoeste 0 -- -- 24
2019-06-18 01:00:00 22.3 5 Sudoeste 13 Sudoeste 0 -- -- 23
2019-06-18 00:00:00 22.6 5 Sudoeste 12 Sudoeste 0 -- -- 25
2019-06-17 23:00:00 24.3 6 Sudoeste 18 Sudoeste 0 -- -- 24
2019-06-17 22:00:00 26.2 8 Sudoeste 19 Sudoeste 0 -- -- 19
2019-06-17 21:00:00 28 11 Sudoeste 26 Sudoeste 0 -- -- 17
2019-06-17 20:00:00 29.9 12 Sudoeste 25 Sudoeste 0 -- -- 15
2019-06-17 19:00:00 30.9 13 Sudoeste 28 Oeste 0 -- -- 16
2019-06-17 18:00:00 31.2 17 Sur 31 Sur 0 -- -- 16
2019-06-17 17:00:00 31.2 10 Sudoeste 29 Sur 0 -- -- 19
2019-06-17 16:00:00 30.6 14 Sur 31 Sudeste 0 -- -- 18
2019-06-17 15:00:00 29.3 10 Sudeste 23 Sudeste 0 -- -- 19
2019-06-17 14:00:00 28.5 9 Sur 20 Sur 0 -- -- 22
2019-06-17 13:00:00 27.1 9 Sudoeste 18 Sudoeste 0 -- -- 24
2019-06-17 12:00:00 25.2 6 Sudeste 13 Oeste 0 -- -- 27
2019-06-17 11:00:00 22.9 4 Oeste 14 Sudoeste 0 -- -- 30
2019-06-17 10:00:00 20.6 6 Oeste 20 Sudoeste 0 -- -- 33
2019-06-17 09:00:00 18.5 10 Oeste 14 Sudoeste 0 -- -- 40
2019-06-17 08:00:00 14.5 3 Oeste 5 Oeste 0 -- -- 52
2019-06-17 07:00:00 12.5 2 Noroeste 8 Noroeste 0 -- -- 54
2019-06-17 06:00:00 13.2 4 Noroeste 9 Oeste 0 -- -- 51
2019-06-17 05:00:00 13.6 5 Oeste 6 Oeste 0 -- -- 49
2019-06-17 04:00:00 15.5 3 Oeste 11 Oeste 0 -- -- 45
2019-06-17 03:00:00 16.4 6 Sudoeste 12 Sudoeste 0 -- -- 43
2019-06-17 02:00:00 16.8 4 Oeste 10 Oeste 0 -- -- 40
2019-06-17 01:00:00 17.5 5 Sudoeste 12 Sudoeste 0 -- -- 38
2019-06-17 00:00:00 18.4 2 Sudoeste 8 Sudoeste 0 -- -- 34
2019-06-16 23:00:00 21.3 4 Sur 11 Sudoeste 0 -- -- 29
2019-06-16 22:00:00 24 5 Sudoeste 22 Sudoeste 0 -- -- 24
2019-06-16 21:00:00 26.8 14 Sudoeste 30 Sur 0 -- -- 23
2019-06-16 20:00:00 27.5 15 Sudoeste 30 Sudoeste 0 -- -- 21
2019-06-16 19:00:00 29 10 Sudoeste 27 Sur 0 -- -- 14
2019-06-16 18:00:00 28.8 11 Sudoeste 25 Sur 0 -- -- 17
2019-06-16 17:00:00 29.5 14 Sur 27 Oeste 0 -- -- 16
2019-06-16 16:00:00 28.3 12 Oeste 22 Oeste 0 -- -- 15
2019-06-16 15:00:00 28.2 8 Sudoeste 18 Sur 0 -- -- 18
2019-06-16 14:00:00 27.8 7 Sudeste 19 Oeste 0 -- -- 20
2019-06-16 13:00:00 26.9 11 Oeste 19 Oeste 0 -- -- 21
2019-06-16 12:00:00 25.9 6 Sur 15 Sur 0 -- -- 23
2019-06-16 11:00:00 23.3 6 Sudeste 15 Nordeste 0 -- -- 25
2019-06-16 10:00:00 20.3 9 Nordeste 15 Nordeste 0 -- -- 32
2019-06-16 09:00:00 18.2 5 Nordeste 12 Nordeste 0 -- -- 37
2019-06-16 08:00:00 14.6 2 Norte 6 Norte 0 -- -- 50
2019-06-16 07:00:00 13 4 Norte 7 Norte 0 -- -- 48
2019-06-16 06:00:00 13.2 0 Calma 8 Nordeste 0 -- -- 45
2019-06-16 05:00:00 15.4 3 Nordeste 15 Nordeste 0 -- -- 38
2019-06-16 04:00:00 16.3 12 Nordeste 15 Nordeste 0 -- -- 35
2019-06-16 03:00:00 16.4 7 Nordeste 13 Nordeste 0 -- -- 34
2019-06-16 02:00:00 16.9 8 Nordeste 12 Nordeste 0 -- -- 33
2019-06-16 01:00:00 16.4 3 Noroeste 10 Noroeste 0 -- -- 35
2019-06-16 00:00:00 18.4 8 Noroeste 13 Noroeste 0 -- -- 31
2019-06-15 23:00:00 18.8 8 Noroeste 12 Noroeste 0 -- -- 31
2019-06-15 22:00:00 20.6 6 Noroeste 12 Oeste 0 -- -- 29
2019-06-15 21:00:00 23.5 10 Oeste 23 Oeste 0 -- -- 24
2019-06-15 20:00:00 24.7 10 Oeste 21 Oeste 0 -- -- 23
2019-06-15 19:00:00 24.9 10 Oeste 25 Oeste 0 -- -- 24
2019-06-15 18:00:00 25 11 Oeste 24 Oeste 0 -- -- 25
2019-06-15 17:00:00 24.6 8 Sudoeste 24 Oeste 0 -- -- 25
2019-06-15 16:00:00 23.8 12 Noroeste 26 Oeste 0 -- -- 26
2019-06-15 15:00:00 22.8 10 Oeste 23 Oeste 0 -- -- 27
2019-06-15 14:00:00 21.5 12 Noroeste 22 Noroeste 0 -- -- 31
2019-06-15 13:00:00 19.7 6 Noroeste 23 Oeste 0 -- -- 35
2019-06-15 12:00:00 18.7 8 Oeste 21 Sudoeste 0 -- -- 38
2019-06-15 11:00:00 16.7 8 Noroeste 19 Oeste 0 -- -- 44
2019-06-15 10:00:00 15.2 8 Oeste 18 Oeste 0 -- -- 50
2019-06-15 09:00:00 13.6 5 Sudoeste 10 Sudoeste 0 -- -- 58
2019-06-15 08:00:00 10.5 0 Calma 4 Sudoeste 0 -- -- 67
2019-06-15 07:00:00 7.8 0 Calma 3 Sur 0 -- -- 75
2019-06-15 06:00:00 8.2 0 Calma 3 Sudeste 0 -- -- 73
2019-06-15 05:00:00 8.8 0 Calma 3 Sur 0 -- -- 68
2019-06-15 04:00:00 10.2 0 Calma 10 Noroeste 0 -- -- 63
2019-06-15 03:00:00 10.2 4 Noroeste 5 Noroeste 0 -- -- 60
2019-06-15 02:00:00 10.9 0 Calma 3 Norte 0 -- -- 57
2019-06-15 01:00:00 12.4 0 Calma 9 Oeste 0 -- -- 52
2019-06-15 00:00:00 14.2 6 Oeste 21 Oeste 0 -- -- 47
2019-06-14 23:00:00 15.4 13 Oeste 31 Oeste 0 -- -- 43
2019-06-14 22:00:00 16.5 23 Oeste 37 Noroeste 0 -- -- 41
2019-06-14 21:00:00 18.7 26 Oeste 39 Oeste 0 -- -- 35
2019-06-14 20:00:00 20.4 25 Oeste 38 Oeste 0 -- -- 33
2019-06-14 19:00:00 21.9 20 Oeste 35 Oeste 0 -- -- 29
2019-06-14 18:00:00 22.8 25 Oeste 42 Oeste 0 -- -- 27
2019-06-14 17:00:00 22.6 23 Oeste 46 Oeste 0 -- -- 28
2019-06-14 16:00:00 22.4 23 Oeste 43 Oeste 0 -- -- 30
2019-06-14 15:00:00 22.1 23 Oeste 44 Oeste 0 -- -- 32
2019-06-14 14:00:00 22 15 Sudoeste 40 Oeste 0 -- -- 36
2019-06-14 13:00:00 20.8 18 Sudoeste 36 Sudoeste 0 -- -- 38
2019-06-14 12:00:00 19.6 17 Oeste 34 Sudoeste 0 -- -- 42
2019-06-14 11:00:00 19 13 Sudoeste 31 Sudoeste 0 -- -- 42
2019-06-14 10:00:00 17 8 Sudoeste 18 Sudoeste 0 -- -- 45
2019-06-14 09:00:00 14.7 5 Oeste 10 Oeste 0 -- -- 50
2019-06-14 08:00:00 12.2 5 Noroeste 10 Noroeste 0 -- -- 56
2019-06-14 07:00:00 10.6 6 Noroeste 9 Noroeste 0 -- -- 56
2019-06-14 06:00:00 11.5 2 Oeste 5 Noroeste 0 -- -- 52
2019-06-14 05:00:00 13.6 5 Noroeste 10 Oeste 0 -- -- 44
2019-06-14 04:00:00 14.9 5 Oeste 13 Oeste 0 -- -- 40
2019-06-14 03:00:00 17.1 8 Oeste 15 Oeste 0 -- -- 36
2019-06-14 02:00:00 18.3 4 Oeste 9 Oeste 0 -- -- 35
2019-06-14 01:00:00 19.2 4 Oeste 20 Oeste 0 -- -- 35
2019-06-14 00:00:00 20.5 13 Oeste 27 Oeste 0 -- -- 34
2019-06-13 23:00:00 21.7 10 Oeste 27 Oeste 0 -- -- 31
2019-06-13 22:00:00 23.1 18 Oeste 31 Oeste 0 -- -- 29
2019-06-13 21:00:00 24.5 7 Sudoeste 20 Sudoeste 0 -- -- 34
2019-06-13 20:00:00 25.6 9 Sudoeste 20 Sudoeste 0 -- -- 32
2019-06-13 19:00:00 27.3 11 Sudoeste 27 Sur 0 -- -- 30
2019-06-13 18:00:00 27.4 11 Sur 27 Sur 0 -- -- 29
2019-06-13 17:00:00 28.1 12 Sudoeste 31 Oeste 0 -- -- 27
2019-06-13 16:00:00 27.8 15 Sur 32 Sudoeste 0 -- -- 26
2019-06-13 15:00:00 26.2 12 Oeste 31 Sudoeste 0 -- -- 29
2019-06-13 14:00:00 25.5 10 Sudoeste 33 Oeste 0 -- -- 33
2019-06-13 13:00:00 24.5 6 Sudoeste 26 Sudoeste 0 -- -- 35
2019-06-13 12:00:00 22.5 4 Sur 18 Sudoeste 0 -- -- 32
2019-06-13 11:00:00 20.7 5 Sudoeste 12 Oeste 0 -- -- 35
2019-06-13 10:00:00 18.8 4 Sur 10 Oeste 0 -- -- 43
2019-06-13 09:00:00 16.2 5 Oeste 10 Oeste 0 -- -- 39
2019-06-13 08:00:00 12.5 3 Oeste 4 Oeste 0 -- -- 39
2019-06-13 07:00:00 10.3 0 Calma 6 Sudoeste 0 -- -- 42
2019-06-13 06:00:00 11 0 Calma 5 Sudoeste 0 -- -- 40
2019-06-13 05:00:00 11.5 0 Calma 4 Sudeste 0 -- -- 37
2019-06-13 04:00:00 12.7 2 Sudeste 4 Sur 0 -- -- 35
2019-06-13 03:00:00 13.9 2 Este 4 Noroeste 0 -- -- 34
2019-06-13 02:00:00 15 2 Noroeste 6 Nordeste 0 -- -- 31
2019-06-13 01:00:00 15.4 2 Nordeste 5 Este 0 -- -- 33
2019-06-13 00:00:00 16.9 3 Este 4 Sudeste 0 -- -- 29
2019-06-12 23:00:00 19.6 0 Calma 10 Noroeste 0 -- -- 24
2019-06-12 22:00:00 22.1 9 Noroeste 24 Oeste 0 -- -- 19
2019-06-12 21:00:00 25.3 8 Oeste 25 Oeste 0 -- -- 18
2019-06-12 20:00:00 26.2 10 Oeste 32 Oeste 0 -- -- 18
2019-06-12 19:00:00 26.7 7 Sudoeste 28 Oeste 0 -- -- 17
2019-06-12 18:00:00 26.4 17 Oeste 35 Oeste 0 -- -- 16
2019-06-12 17:00:00 26.4 16 Sudoeste 28 Sudoeste 0 -- -- 16
2019-06-12 16:00:00 25.7 13 Sudoeste 29 Oeste 0 -- -- 16
2019-06-12 15:00:00 24.7 5 Noroeste 27 Oeste 0 -- -- 19
2019-06-12 14:00:00 23.3 10 Noroeste 29 Oeste 0 -- -- 22
2019-06-12 13:00:00 22.4 10 Oeste 21 Sudoeste 0 -- -- 23
2019-06-12 12:00:00 21.4 7 Este 16 Este 0 -- -- 26
2019-06-12 11:00:00 18.9 7 Este 18 Nordeste 0 -- -- 35
2019-06-12 10:00:00 15.8 12 Nordeste 24 Nordeste 0 -- -- 51
2019-06-12 09:00:00 13.5 15 Nordeste 28 Nordeste 0 -- -- 58
2019-06-12 08:00:00 11.7 17 Nordeste 30 Nordeste 0 -- -- 65
2019-06-12 07:00:00 10.6 20 Nordeste 28 Este 0 -- -- 62
2019-06-12 06:00:00 11.1 19 Nordeste 29 Nordeste 0 -- -- 58
2019-06-12 05:00:00 12.6 19 Este 27 Este 0 -- -- 36
2019-06-12 04:00:00 12.4 15 Nordeste 23 Nordeste 0 -- -- 33
2019-06-12 03:00:00 13.4 15 Este 21 Nordeste 0 -- -- 32
2019-06-12 02:00:00 14.1 15 Este 22 Este 0 -- -- 32
2019-06-12 01:00:00 14.5 12 Nordeste 18 Nordeste 0 -- -- 33
2019-06-12 00:00:00 15.7 10 Este 16 Nordeste 0 -- -- 31
2019-06-11 23:00:00 16.7 8 Este 12 Nordeste 0 -- -- 34
2019-06-11 22:00:00 18.5 10 Este 24 Nordeste 0 -- -- 32
2019-06-11 21:00:00 20.2 14 Este 30 Nordeste 0 -- -- 31
2019-06-11 20:00:00 21.5 16 Nordeste 35 Norte 0 -- -- 29
2019-06-11 19:00:00 21.7 18 Nordeste 38 Nordeste 0 -- -- 32
2019-06-11 18:00:00 21.8 21 Norte 37 Nordeste 0 -- -- 33
2019-06-11 17:00:00 22.8 17 Nordeste 32 Nordeste 0 -- -- 32
2019-06-11 16:00:00 24.1 10 Oeste 35 Oeste 0 -- -- 30
2019-06-11 15:00:00 23.6 17 Oeste 29 Oeste 0 -- -- 31
2019-06-11 14:00:00 22.5 14 Oeste 33 Oeste 0 -- -- 35
2019-06-11 13:00:00 20.6 14 Oeste 28 Noroeste 0 -- -- 39
2019-06-11 12:00:00 19.3 17 Oeste 25 Oeste 0 -- -- 42
2019-06-11 11:00:00 17.5 10 Oeste 23 Oeste 0 -- -- 45
2019-06-11 10:00:00 15.6 13 Oeste 28 Sudoeste 0 -- -- 50
2019-06-11 09:00:00 14.2 13 Oeste 23 Oeste 0 -- -- 52
2019-06-11 08:00:00 12.4 8 Oeste 14 Oeste 0 -- -- 55
2019-06-11 07:00:00 11.4 3 Sudoeste 12 Oeste 0 -- -- 57
2019-06-11 06:00:00 11 4 Oeste 7 Oeste 0 -- -- 58
2019-06-11 05:00:00 11.6 2 Sudoeste 6 Sudoeste 0 -- -- 55
2019-06-11 04:00:00 12.6 2 Norte 8 Oeste 0 -- -- 49
2019-06-11 03:00:00 14.3 5 Noroeste 10 Sur 0 -- -- 44
2019-06-11 02:00:00 14.8 4 Sur 9 Sudoeste 0 -- -- 38
2019-06-11 01:00:00 15.4 5 Oeste 9 Oeste 0 -- -- 34
2019-06-11 00:00:00 16.1 3 Oeste 8 Oeste 0 -- -- 36
2019-06-10 23:00:00 17.8 4 Oeste 9 Oeste 0 -- -- 33
2019-06-10 22:00:00 21.1 8 Oeste 27 Oeste 0 -- -- 28
2019-06-10 21:00:00 23.5 15 Oeste 32 Oeste 0 -- -- 25
2019-06-10 20:00:00 24.7 17 Oeste 33 Oeste 0 -- -- 25
2019-06-10 19:00:00 25.4 15 Oeste 35 Oeste 0 -- -- 25
2019-06-10 18:00:00 25.2 13 Oeste 33 Oeste 0 -- -- 25
2019-06-10 17:00:00 25.4 15 Oeste 30 Oeste 0 -- -- 24
2019-06-10 16:00:00 24.9 14 Oeste 26 Sudoeste 0 -- -- 27
2019-06-10 15:00:00 24 13 Sudoeste 32 Sudoeste 0 -- -- 29
2019-06-10 14:00:00 22.9 8 Noroeste 28 Oeste 0 -- -- 32
2019-06-10 13:00:00 22 9 Oeste 23 Sudoeste 0 -- -- 33
2019-06-10 12:00:00 20.5 7 Sur 19 Oeste 0 -- -- 35
2019-06-10 11:00:00 18.4 10 Noroeste 26 Oeste 0 -- -- 46
2019-06-10 10:00:00 16.3 8 Noroeste 15 Oeste 0 -- -- 54
2019-06-10 09:00:00 14.6 8 Oeste 12 Oeste 0 -- -- 59
2019-06-10 08:00:00 11.8 5 Oeste 8 Oeste 0 -- -- 67
2019-06-10 07:00:00 9.4 2 Sudoeste 5 Oeste 0 -- -- 73
2019-06-10 06:00:00 10.2 3 Oeste 4 Sudoeste 0 -- -- 68
2019-06-10 05:00:00 11.6 0 Calma 8 Sudoeste 0 -- -- 63
2019-06-10 04:00:00 12.9 6 Oeste 11 Oeste 0 -- -- 58
2019-06-10 03:00:00 14.5 4 Oeste 14 Oeste 0 -- -- 52
2019-06-10 02:00:00 15.3 5 Noroeste 15 Oeste 0 -- -- 49
2019-06-10 01:00:00 17.2 9 Oeste 21 Oeste 0 -- -- 44
2019-06-10 00:00:00 17.8 10 Noroeste 17 Oeste 0 -- -- 41
2019-06-09 23:00:00 17.7 4 Oeste 19 Noroeste 0 -- -- 36
2019-06-09 22:00:00 20.4 12 Oeste 26 Oeste 0 -- -- 30
2019-06-09 21:00:00 22.5 17 Oeste 36 Oeste 0 -- -- 25
2019-06-09 20:00:00 23.9 20 Oeste 36 Oeste 0 -- -- 22
2019-06-09 19:00:00 25.1 21 Oeste 36 Oeste 0 -- -- 20
2019-06-09 18:00:00 25.6 23 Oeste 39 Oeste 0 -- -- 16
2019-06-09 17:00:00 25.5 19 Oeste 41 Oeste 0 -- -- 19
2019-06-09 16:00:00 25.3 14 Oeste 36 Oeste 0 -- -- 24
2019-06-09 15:00:00 24.6 16 Oeste 37 Sudoeste 0 -- -- 26
2019-06-09 14:00:00 24.2 19 Oeste 36 Oeste 0 -- -- 30
2019-06-09 13:00:00 23.2 12 Oeste 35 Oeste 0 -- -- 32
2019-06-09 12:00:00 22.4 16 Sudoeste 32 Sudoeste 0 -- -- 33
2019-06-09 11:00:00 20.8 16 Oeste 29 Oeste 0 -- -- 35
2019-06-09 10:00:00 18.9 7 Oeste 14 Oeste 0 -- -- 39
2019-06-09 09:00:00 16.7 5 Oeste 9 Oeste 0 -- -- 47
2019-06-09 08:00:00 13.7 0 Calma 9 Oeste 0 -- -- 53
2019-06-09 07:00:00 12.7 7 Noroeste 11 Oeste 0 -- -- 51
2019-06-09 06:00:00 12 4 Oeste 10 Oeste 0 -- -- 47
2019-06-09 05:00:00 13.4 4 Sudoeste 8 Oeste 0 -- -- 41
2019-06-09 04:00:00 14.6 5 Noroeste 7 Oeste 0 -- -- 39
2019-06-09 03:00:00 15.4 0 Calma 4 Sur 0 -- -- 37
2019-06-09 02:00:00 17.1 3 Nordeste 5 Sudeste 0 -- -- 34
2019-06-09 01:00:00 18.1 0 Calma 5 Sudoeste 0 -- -- 32
2019-06-09 00:00:00 19.1 0 Calma 3 Nordeste 0 -- -- 30
2019-06-08 23:00:00 21 0 Calma 5 Oeste 0 -- -- 26
2019-06-08 22:00:00 23.3 4 Oeste 14 Oeste 0 -- -- 22
2019-06-08 21:00:00 25.4 9 Noroeste 22 Oeste 0 -- -- 19
2019-06-08 20:00:00 26.2 14 Oeste 27 Sudoeste 0 -- -- 18
2019-06-08 19:00:00 27.5 10 Sudoeste 40 Oeste 0 -- -- 19
2019-06-08 18:00:00 28 15 Sudoeste 30 Oeste 0 -- -- 19
2019-06-08 17:00:00 28 14 Oeste 35 Oeste 0 -- -- 16
2019-06-08 16:00:00 28.8 13 Sudoeste 47 Oeste 0 -- -- 17
2019-06-08 15:00:00 27.6 16 Oeste 29 Oeste 0 -- -- 19
2019-06-08 14:00:00 26.5 8 Sudoeste 22 Oeste 0 -- -- 22
2019-06-08 13:00:00 25.2 8 Oeste 21 Sur 0 -- -- 23
2019-06-08 12:00:00 23.8 9 Sur 18 Sudeste 0 -- -- 25
2019-06-08 11:00:00 20.2 6 Sudeste 15 Este 0 -- -- 27
2019-06-08 10:00:00 17.3 8 Nordeste 27 Nordeste 0 -- -- 33
2019-06-08 09:00:00 15.6 17 Nordeste 26 Nordeste 0 -- -- 35
2019-06-08 08:00:00 13.5 7 Nordeste 16 Este 0 -- -- 34
2019-06-08 07:00:00 11.9 8 Este 13 Nordeste 0 -- -- 37
2019-06-08 06:00:00 11.3 8 Nordeste 11 Nordeste 0 -- -- 40
2019-06-08 05:00:00 12 8 Nordeste 10 Nordeste 0 -- -- 39
2019-06-08 04:00:00 12.4 8 Norte 9 Norte 0 -- -- 37
2019-06-08 03:00:00 12.9 8 Nordeste 9 Nordeste 0 -- -- 37
2019-06-08 02:00:00 13.6 7 Nordeste 12 Noroeste 0 -- -- 38
2019-06-08 01:00:00 14.9 8 Norte 13 Noroeste 0 -- -- 34
2019-06-08 00:00:00 15.1 9 Noroeste 11 Noroeste 0 -- -- 33
2019-06-07 23:00:00 15.9 5 Noroeste 12 Noroeste 0 -- -- 31
2019-06-07 22:00:00 17.9 5 Noroeste 13 Oeste 0 -- -- 27
2019-06-07 21:00:00 21.3 8 Oeste 26 Noroeste 0 -- -- 20
2019-06-07 20:00:00 22.2 8 Oeste 57 Noroeste 0 -- -- 20
2019-06-07 19:00:00 22.5 12 Oeste 24 Oeste 0 -- -- 22
2019-06-07 18:00:00 22.3 12 Oeste 27 Oeste 0 -- -- 22
2019-06-07 17:00:00 21.7 12 Oeste 30 Oeste 0 -- -- 23
2019-06-07 16:00:00 21.1 13 Oeste 42 Oeste 0 -- -- 23
2019-06-07 15:00:00 20 16 Oeste 26 Oeste 0 -- -- 25
2019-06-07 14:00:00 18.3 9 Oeste 27 Oeste 0 -- -- 29
2019-06-07 13:00:00 17 14 Oeste 27 Oeste 0 -- -- 36
2019-06-07 12:00:00 15.2 12 Oeste 31 Oeste 0 -- -- 42
2019-06-07 11:00:00 13.7 16 Oeste 29 Oeste 0 -- -- 49
2019-06-07 10:00:00 12.5 14 Oeste 27 Oeste 0 -- -- 57
2019-06-07 09:00:00 11.5 17 Oeste 30 Oeste 0 -- -- 60
2019-06-07 08:00:00 10.6 16 Oeste 24 Oeste 0 -- -- 72
2019-06-07 07:00:00 10 14 Oeste 24 Oeste 0 -- -- 78
2019-06-07 06:00:00 9.9 17 Oeste 40 Oeste 0 -- -- 87
2019-06-07 05:00:00 12.7 27 Oeste 42 Oeste 0 -- -- 84
2019-06-07 04:00:00 14.1 13 Sudoeste 34 Sudoeste 0 -- -- 81
2019-06-07 03:00:00 15.4 23 Sudoeste 38 Oeste 0 -- -- 65
2019-06-07 02:00:00 15.1 9 Sudoeste 18 Sudoeste 0 -- -- 48
2019-06-07 01:00:00 15.6 9 Sudoeste 19 Oeste 0 -- -- 46
2019-06-07 00:00:00 17 10 Sudoeste 21 Sudoeste 0 -- -- 40
2019-06-06 23:00:00 18.2 9 Oeste 22 Sudoeste 0 -- -- 31
2019-06-06 22:00:00 20.2 13 Sudoeste 36 Sudoeste 0 -- -- 27
2019-06-06 21:00:00 22.1 19 Sudoeste 39 Oeste 0 -- -- 25
2019-06-06 20:00:00 23.5 21 Sudoeste 42 Oeste 0 -- -- 22
2019-06-06 19:00:00 24.7 18 Sudoeste 46 Sudoeste 0 -- -- 22
2019-06-06 18:00:00 25.1 19 Sudoeste 42 Sudoeste 0 -- -- 21
2019-06-06 17:00:00 25.3 17 Sudoeste 38 Sudoeste 0 -- -- 22
2019-06-06 16:00:00 24 19 Sudoeste 41 Oeste 0 -- -- 23
2019-06-06 15:00:00 23.2 15 Sudoeste 32 Sudoeste 0 -- -- 25
2019-06-06 14:00:00 22.2 11 Sudoeste 33 Oeste 0 -- -- 27
2019-06-06 13:00:00 20.6 14 Sudoeste 34 Oeste 0 -- -- 28
2019-06-06 12:00:00 19.4 14 Sudoeste 27 Oeste 0 -- -- 32
2019-06-06 11:00:00 16.9 8 Sudoeste 15 Sudoeste 0 -- -- 39
2019-06-06 10:00:00 14.7 5 Sudoeste 10 Sudoeste 0 -- -- 44
2019-06-06 09:00:00 12.6 6 Oeste 10 Oeste 0 -- -- 49
2019-06-06 08:00:00 9.7 0 Calma 3 Oeste 0 -- -- 59
2019-06-06 07:00:00 7.6 0 Calma 6 Oeste 0 -- -- 68
2019-06-06 06:00:00 8.1 2 Nordeste 4 Oeste 0 -- -- 65
2019-06-06 05:00:00 8.5 0 Calma 4 Noroeste 0 -- -- 63
2019-06-06 04:00:00 9.2 3 Noroeste 5 Noroeste 0 -- -- 60
2019-06-06 03:00:00 9.6 0 Calma 4 Nordeste 0 -- -- 57
2019-06-06 02:00:00 10.3 0 Calma 2 Sur 0 -- -- 53
2019-06-06 01:00:00 11.5 0 Calma 5 Oeste 0 -- -- 49
2019-06-06 00:00:00 12.4 2 Nordeste 3 Nordeste 0 -- -- 46
2019-06-05 23:00:00 13.6 0 Calma 10 Oeste 0 -- -- 42
2019-06-05 22:00:00 16 8 Oeste 24 Oeste 0 -- -- 35
2019-06-05 21:00:00 18.2 15 Oeste 35 Oeste 0 -- -- 30
2019-06-05 20:00:00 19.3 18 Oeste 32 Oeste 0 -- -- 28
2019-06-05 19:00:00 19.8 22 Oeste 38 Oeste 0 -- -- 28
2019-06-05 18:00:00 20.1 19 Oeste 40 Oeste 0 -- -- 28
2019-06-05 17:00:00 19.4 21 Oeste 41 Oeste 0 -- -- 30
2019-06-05 16:00:00 19.6 25 Oeste 41 Oeste 0 -- -- 30
2019-06-05 15:00:00 19 22 Oeste 43 Oeste 0 -- -- 33
2019-06-05 14:00:00 18.5 24 Oeste 44 Oeste 0 -- -- 35
2019-06-05 13:00:00 17.7 22 Oeste 43 Sudoeste 0 -- -- 36
2019-06-05 12:00:00 16.3 24 Oeste 41 Oeste 0 -- -- 40
2019-06-05 11:00:00 14.6 24 Oeste 52 Oeste 0 -- -- 48
2019-06-05 10:00:00 12.8 22 Oeste 35 Oeste 0 -- -- 59
2019-06-05 09:00:00 11.3 17 Oeste 33 Oeste 0 -- -- 67
2019-06-05 08:00:00 9.9 22 Oeste 42 Sudoeste 0 -- -- 73
2019-06-05 07:00:00 9.4 14 Oeste 36 Oeste 0 -- -- 75
2019-06-05 06:00:00 10 19 Oeste 36 Oeste 0 -- -- 72
2019-06-05 05:00:00 11.6 22 Oeste 38 Oeste 0 -- -- 63
2019-06-05 04:00:00 14 26 Oeste 39 Oeste 0 -- -- 58
2019-06-05 03:00:00 15 19 Oeste 36 Oeste 0 -- -- 64
2019-06-05 02:00:00 15.9 22 Oeste 40 Oeste 0 -- -- 61
2019-06-05 01:00:00 17.8 22 Oeste 36 Oeste 0 -- -- 60
2019-06-05 00:00:00 18.4 20 Oeste 36 Oeste 0 -- -- 61
2019-06-04 23:00:00 19.8 20 Oeste 33 Oeste 0 -- -- 54
2019-06-04 22:00:00 21 13 Oeste 32 Oeste 0 -- -- 49
2019-06-04 21:00:00 22.9 22 Oeste 38 Oeste 0 -- -- 43
2019-06-04 20:00:00 25.5 22 Oeste 37 Oeste 0 -- -- 37
2019-06-04 19:00:00 27.4 20 Oeste 38 Noroeste 0 -- -- 31
2019-06-04 18:00:00 28.3 19 Oeste 40 Oeste 0 -- -- 30
2019-06-04 17:00:00 28.1 17 Sudoeste 43 Noroeste 0 -- -- 30
2019-06-04 16:00:00 27.9 18 Oeste 44 Oeste 0 -- -- 32
2019-06-04 15:00:00 27.8 23 Sudoeste 47 Oeste 0 -- -- 30
2019-06-04 14:00:00 27 16 Sudoeste 37 Oeste 0 -- -- 35
2019-06-04 13:00:00 25.5 18 Sudoeste 33 Oeste 0 -- -- 38
2019-06-04 12:00:00 24.2 17 Oeste 29 Sudoeste 0 -- -- 42
2019-06-04 11:00:00 22.5 12 Oeste 24 Oeste 0 -- -- 55
2019-06-04 10:00:00 20.7 11 Oeste 22 Oeste 0 -- -- 63
2019-06-04 09:00:00 19.4 8 Oeste 13 Oeste 0 -- -- 65
2019-06-04 08:00:00 16.9 2 Sudoeste 7 Oeste 0 -- -- 74
2019-06-04 07:00:00 15.7 5 Noroeste 8 Noroeste 0 -- -- 74
2019-06-04 06:00:00 15.6 2 Noroeste 9 Oeste 0 -- -- 66
2019-06-04 05:00:00 15.7 0 Calma 2 Sur 0 -- -- 54
2019-06-04 04:00:00 16.9 0 Calma 4 Norte 0 -- -- 47
2019-06-04 03:00:00 17.6 0 Calma 4 Nordeste 0 -- -- 42
2019-06-04 02:00:00 18.5 0 Calma 4 Oeste 0 -- -- 38
2019-06-04 01:00:00 19.4 0 Calma 4 Oeste 0 -- -- 36
2019-06-04 00:00:00 21 3 Norte 5 Oeste 0 -- -- 32
2019-06-03 23:00:00 23.4 0 Calma 9 Oeste -- -- -- 28
2019-06-03 22:00:00 27 8 Sudoeste 14 Sudoeste 0 -- -- 22
2019-06-03 21:00:00 30.5 8 Oeste 34 Oeste 0 -- -- 19
2019-06-03 20:00:00 32.3 14 Oeste 29 Oeste 0 -- -- 16
2019-06-03 19:00:00 32.8 10 Oeste 41 Oeste 0 -- -- 15
2019-06-03 18:00:00 33 16 Oeste 32 Oeste 0 -- -- 15
2019-06-03 17:00:00 33.1 13 Sudoeste 33 Oeste 0 -- -- 17
2019-06-03 16:00:00 32.9 13 Sudoeste 31 Oeste 0 -- -- 16
2019-06-03 15:00:00 32.4 14 Oeste 27 Sudoeste 0 -- -- 17
2019-06-03 14:00:00 31.2 12 Oeste 27 Noroeste 0 -- -- 19
2019-06-03 13:00:00 30.2 9 Oeste 24 Oeste 0 -- -- 19
2019-06-03 12:00:00 28.7 14 Oeste 22 Oeste 0 -- -- 19
2019-06-03 11:00:00 26.2 10 Oeste 21 Oeste 0 -- -- 25
2019-06-03 10:00:00 23.9 13 Oeste 19 Oeste 0 -- -- 28
2019-06-03 09:00:00 21.2 6 Oeste 10 Oeste 0 -- -- 34
2019-06-03 08:00:00 19.5 5 Oeste 9 Oeste 0 -- -- 40
2019-06-03 07:00:00 16 2 Oeste 8 Sudoeste 0 -- -- 48
2019-06-03 06:00:00 17.1 4 Oeste 6 Oeste 0 -- -- 43
2019-06-03 05:00:00 17.9 0 Calma 6 Sudoeste 0 -- -- 40
2019-06-03 04:00:00 18.9 2 Sur 6 Oeste 0 -- -- 38
2019-06-03 03:00:00 20.4 5 Oeste 10 Sudoeste 0 -- -- 33
2019-06-03 02:00:00 21 4 Oeste 10 Sudoeste 0 -- -- 33
2019-06-03 01:00:00 23.3 3 Oeste 12 Sur 0 -- -- 29
2019-06-03 00:00:00 24.7 4 Sur 22 Sudoeste 0 -- -- 27
2019-06-02 23:00:00 26.3 8 Norte 12 Norte 0 -- -- 21
2019-06-02 22:00:00 26.4 5 Noroeste 10 Oeste 0 -- -- 24
2019-06-02 21:00:00 30.5 8 Oeste 17 Oeste 0 -- -- 18
2019-06-02 20:00:00 32.7 5 Oeste 19 Oeste 0 -- -- 17
2019-06-02 19:00:00 33 6 Oeste 23 Sur 0 -- -- 17
2019-06-02 18:00:00 33.6 6 Sudoeste 21 Sudoeste 0 -- -- 17
2019-06-02 17:00:00 32.5 6 Nordeste 24 Oeste 0 -- -- 18
2019-06-02 16:00:00 32.9 8 Oeste 18 Sur 0 -- -- 18
2019-06-02 15:00:00 32.2 8 Sudeste 18 Sur 0 -- -- 18
2019-06-02 14:00:00 30.8 5 Norte 21 Oeste 0 -- -- 20
2019-06-02 13:00:00 29.9 6 Sur 16 Sur 0 -- -- 22
2019-06-02 12:00:00 27.6 6 Sur 20 Sudoeste 0 -- -- 25
2019-06-02 11:00:00 26 7 Sudoeste 15 Sudoeste 0 -- -- 26
2019-06-02 10:00:00 23.8 6 Sudoeste 12 Sur 0 -- -- 28
2019-06-02 09:00:00 21.8 3 Sudoeste 10 Noroeste 0 -- -- 29
2019-06-02 08:00:00 17.2 2 Norte 7 Oeste 0 -- -- 46
2019-06-02 07:00:00 15.4 5 Oeste 8 Oeste 0 -- -- 44
2019-06-02 06:00:00 15.9 4 Nordeste 5 Nordeste 0 -- -- 44
2019-06-02 05:00:00 16.2 3 Nordeste 4 Nordeste 0 -- -- 42
2019-06-02 04:00:00 17.4 3 Oeste 8 Oeste 0 -- -- 35
2019-06-02 03:00:00 20.7 7 Noroeste 13 Sudeste 0 -- -- 27
2019-06-02 02:00:00 23.1 9 Este 19 Este 0 -- -- 23
2019-06-02 01:00:00 23.8 9 Este 18 Este 0 -- -- 22
2019-06-02 00:00:00 24.9 12 Este 21 Este 0 -- -- 21
2019-06-01 23:00:00 26.3 16 Este 25 Este 0 -- -- 20
2019-06-01 22:00:00 27 11 Este 15 Este 0 -- -- 20
2019-06-01 21:00:00 29.6 8 Este 24 Este 0 -- -- 19
2019-06-01 20:00:00 31 11 Sudeste 23 Este 0 -- -- 17
2019-06-01 19:00:00 31.6 12 Este 24 Este 0 -- -- 16
2019-06-01 18:00:00 31.7 5 Este 28 Este 0 -- -- 18
2019-06-01 17:00:00 31.5 13 Este 30 Este 0 -- -- 17
2019-06-01 16:00:00 31.1 13 Nordeste 30 Nordeste 0 -- -- 18
2019-06-01 15:00:00 30.8 12 Nordeste 27 Este 0 -- -- 19
2019-06-01 14:00:00 29.7 13 Este 33 Nordeste 0 -- -- 20
2019-06-01 13:00:00 28.1 8 Este 21 Sudeste 0 -- -- 25
2019-06-01 12:00:00 25.9 10 Nordeste 17 Nordeste 0 -- -- 31
2019-06-01 11:00:00 23.8 10 Nordeste 18 Nordeste 0 -- -- 36
2019-06-01 10:00:00 20.1 10 Nordeste 17 Nordeste 0 -- -- 42
2019-06-01 09:00:00 17.6 14 Nordeste 23 Nordeste 0 -- -- 47
2019-06-01 08:00:00 16.2 14 Nordeste 24 Norte 0 -- -- 46
2019-06-01 07:00:00 14.8 3 Nordeste 22 Nordeste 0 -- -- 46
2019-06-01 06:00:00 15.7 18 Norte 22 Nordeste 0 -- -- 43
2019-06-01 05:00:00 17.3 5 Norte 20 Nordeste 0 -- -- 39
2019-06-01 04:00:00 19.7 7 Este 17 Sudeste 0 -- -- 38
2019-06-01 03:00:00 21.1 12 Este 18 Este 0 -- -- 35
2019-06-01 02:00:00 21.6 13 Este 19 Sudeste 0 -- -- 32
2019-06-01 01:00:00 22.1 13 Este 24 Este 0 -- -- 28
2019-06-01 00:00:00 23.4 17 Este 27 Este 0 -- -- 25
2019-05-31 23:00:00 23.9 16 Nordeste 24 Este 0 -- -- 24
2019-05-31 22:00:00 24.5 10 Nordeste 14 Este 0 -- -- 23
2019-05-31 21:00:00 28.1 8 Nordeste 22 Este 0 -- -- 18
2019-05-31 20:00:00 29.5 11 Este 25 Nordeste 0 -- -- 16
2019-05-31 19:00:00 29.8 13 Nordeste 26 Nordeste 0 -- -- 15
2019-05-31 18:00:00 30.2 13 Nordeste 26 Nordeste 0 -- -- 15
2019-05-31 17:00:00 30.3 14 Nordeste 33 Nordeste 0 -- -- 15
2019-05-31 16:00:00 30 13 Nordeste 31 Este 0 -- -- 19
2019-05-31 15:00:00 29.2 14 Este 33 Este 0 -- -- 21
2019-05-31 14:00:00 28.4 15 Nordeste 38 Nordeste 0 -- -- 19
2019-05-31 13:00:00 27.8 15 Este 28 Sudeste 0 -- -- 24
2019-05-31 12:00:00 25.8 17 Este 30 Sudeste 0 -- -- 28
2019-05-31 11:00:00 22.8 12 Nordeste 24 Nordeste 0 -- -- 38
2019-05-31 10:00:00 19.2 20 Nordeste 31 Nordeste 0 -- -- 43
2019-05-31 09:00:00 17.3 19 Nordeste 28 Nordeste 0 -- -- 47
2019-05-31 08:00:00 16.1 5 Este 21 Nordeste 0 -- -- 46
2019-05-31 07:00:00 14.3 16 Nordeste 25 Nordeste 0 -- -- 48
2019-05-31 06:00:00 15.7 16 Este 26 Nordeste 0 -- -- 42
2019-05-31 05:00:00 16.6 16 Nordeste 25 Nordeste 0 -- -- 40
2019-05-31 04:00:00 19.2 16 Este 22 Nordeste 0 -- -- 34
2019-05-31 03:00:00 19.7 13 Nordeste 19 Nordeste 0 -- -- 32
2019-05-31 02:00:00 20.4 8 Este 15 Este 0 -- -- 31
2019-05-31 01:00:00 21.3 12 Este 18 Sudeste 0 -- -- 29
2019-05-31 00:00:00 21.2 14 Nordeste 24 Nordeste 0 -- -- 30
2019-05-30 23:00:00 22 15 Nordeste 22 Nordeste 0 -- -- 28
2019-05-30 22:00:00 23.7 13 Este 24 Nordeste 0 -- -- 26
2019-05-30 21:00:00 26.5 13 Nordeste 27 Este 0 -- -- 22
2019-05-30 20:00:00 28 16 Nordeste 35 Nordeste 0 -- -- 19
2019-05-30 19:00:00 28.7 17 Nordeste 33 Nordeste 0 -- -- 19
2019-05-30 18:00:00 28.9 15 Nordeste 32 Este 0 -- -- 20
2019-05-30 17:00:00 28.8 20 Este 35 Este 0 -- -- 20
2019-05-30 16:00:00 28.3 17 Este 32 Este 0 -- -- 20
2019-05-30 15:00:00 26.6 15 Nordeste 28 Nordeste 0 -- -- 25
2019-05-30 14:00:00 25.2 15 Nordeste 33 Nordeste 0 -- -- 27
2019-05-30 13:00:00 23.9 17 Nordeste 33 Este 0 -- -- 29
2019-05-30 12:00:00 22.3 23 Nordeste 35 Este 0 -- -- 33
2019-05-30 11:00:00 20.5 18 Nordeste 31 Nordeste 0 -- -- 38
2019-05-30 10:00:00 18 23 Nordeste 35 Este 0 -- -- 46
2019-05-30 09:00:00 15.9 22 Nordeste 32 Nordeste 0 -- -- 50
2019-05-30 08:00:00 14.6 21 Este 29 Este 0 -- -- 52
2019-05-30 07:00:00 14.3 19 Este 26 Este 0 -- -- 50
2019-05-30 06:00:00 14.1 13 Nordeste 20 Nordeste 0 -- -- 46
2019-05-30 05:00:00 15.6 15 Nordeste 19 Este 0 -- -- 44
2019-05-30 04:00:00 17 14 Nordeste 30 Este 0 -- -- 40
2019-05-30 03:00:00 17.1 15 Nordeste 20 Este 0 -- -- 39
2019-05-30 02:00:00 19.1 13 Nordeste 26 Este 0 -- -- 36
2019-05-30 01:00:00 19.9 13 Este 21 Este 0 -- -- 34
2019-05-30 00:00:00 19.7 12 Nordeste 17 Este 0 -- -- 34
2019-05-29 23:00:00 20.7 9 Este 12 Nordeste 0 -- -- 32
2019-05-29 22:00:00 22.3 8 Este 19 Nordeste 0 -- -- 29
2019-05-29 21:00:00 24.8 11 Nordeste 26 Nordeste 0 -- -- 25
2019-05-29 20:00:00 26 15 Nordeste 29 Nordeste 0 -- -- 23
2019-05-29 19:00:00 27.1 13 Nordeste 29 Nordeste 0 -- -- 22
2019-05-29 18:00:00 27.3 14 Nordeste 32 Nordeste 0 -- -- 21
2019-05-29 17:00:00 26.8 16 Este 34 Nordeste 0 -- -- 23
2019-05-29 16:00:00 25.5 18 Nordeste 40 Este 0 -- -- 24
2019-05-29 15:00:00 24.5 18 Nordeste 33 Nordeste 0 -- -- 25
2019-05-29 14:00:00 23.1 15 Nordeste 38 Este 0 -- -- 27
2019-05-29 13:00:00 21.4 21 Este 39 Nordeste 0 -- -- 29
2019-05-29 12:00:00 19.1 21 Nordeste 39 Nordeste 0 -- -- 35
2019-05-29 11:00:00 17.1 23 Este 42 Este 0 -- -- 37
2019-05-29 10:00:00 15.7 22 Este 40 Este 0 -- -- 39
2019-05-29 09:00:00 14.1 30 Este 49 Este 0 -- -- 42
2019-05-29 08:00:00 13.2 28 Este 42 Nordeste 0 -- -- 45
2019-05-29 07:00:00 12.6 22 Este 36 Este 0 -- -- 50
2019-05-29 06:00:00 13.4 16 Este 35 Este 0 -- -- 47
2019-05-29 05:00:00 14.4 23 Este 36 Este 0 -- -- 45
2019-05-29 04:00:00 15.4 24 Este 37 Este 0 -- -- 42
2019-05-29 03:00:00 16.7 23 Este 39 Nordeste 0 -- -- 39
2019-05-29 02:00:00 17.7 23 Este 40 Este 0 -- -- 35
2019-05-29 01:00:00 18.7 20 Nordeste 35 Nordeste 0 -- -- 28
2019-05-29 00:00:00 20.7 18 Nordeste 32 Nordeste 0 -- -- 28
2019-05-28 23:00:00 22.7 15 Nordeste 28 Nordeste 0 -- -- 23
2019-05-28 22:00:00 24 14 Nordeste 29 Nordeste 0 -- -- 19
2019-05-28 21:00:00 25.9 12 Norte 27 Norte 0 -- -- 19
2019-05-28 20:00:00 27.3 14 Nordeste 29 Nordeste 0 -- -- 20
2019-05-28 19:00:00 28.4 15 Norte 28 Norte 0 -- -- 22
2019-05-28 18:00:00 29.6 12 Norte 24 Norte 0 -- -- 25
2019-05-28 17:00:00 29.2 12 Noroeste 30 Norte 0 -- -- 25
2019-05-28 16:00:00 28.6 12 Nordeste 28 Sur 0 -- -- 28
2019-05-28 15:00:00 27.6 9 Noroeste 24 Nordeste 0 -- -- 30
2019-05-28 14:00:00 27 11 Nordeste 26 Norte 0 -- -- 30
2019-05-28 13:00:00 26.1 10 Este 26 Este 0 -- -- 33
2019-05-28 12:00:00 24.5 14 Nordeste 24 Nordeste 0 -- -- 37
2019-05-28 11:00:00 22.6 13 Nordeste 23 Nordeste 0 -- -- 43
2019-05-28 10:00:00 20.6 12 Este 28 Nordeste 0 -- -- 49
2019-05-28 09:00:00 18.5 12 Este 27 Este 0 -- -- 54
2019-05-28 08:00:00 16.7 15 Este 31 Nordeste 0 -- -- 59
2019-05-28 07:00:00 15.8 23 Nordeste 32 Nordeste 0 -- -- 61
2019-05-28 06:00:00 16.3 20 Nordeste 32 Nordeste 0 -- -- 59
2019-05-28 05:00:00 17.3 21 Nordeste 30 Este 0 -- -- 55
2019-05-28 04:00:00 19.2 22 Este 33 Este 0 -- -- 48
2019-05-28 03:00:00 19.9 17 Este 28 Este 0 -- -- 43
2019-05-28 02:00:00 20.3 18 Nordeste 27 Nordeste 0 -- -- 39
2019-05-28 01:00:00 21.3 9 Nordeste 17 Norte 0 -- -- 36
2019-05-28 00:00:00 21.7 8 Norte 14 Norte 0 -- -- 36
2019-05-27 23:00:00 24.2 8 Norte 17 Noroeste 0 -- -- 31
2019-05-27 22:00:00 24.1 5 Noroeste 24 Oeste 0 -- -- 33
2019-05-27 21:00:00 27.5 14 Oeste 34 Oeste 0 -- -- 28
2019-05-27 20:00:00 28.4 19 Oeste 37 Noroeste 0 -- -- 27
2019-05-27 19:00:00 28.9 24 Oeste 41 Oeste 0 -- -- 26
2019-05-27 18:00:00 29.4 21 Oeste 53 Oeste 0 -- -- 25
2019-05-27 17:00:00 29.6 22 Oeste 37 Oeste 0 -- -- 23
2019-05-27 16:00:00 29.6 17 Noroeste 35 Oeste 0 -- -- 22
2019-05-27 15:00:00 29.1 18 Oeste 36 Oeste 0 -- -- 23
2019-05-27 14:00:00 28.1 17 Oeste 30 Oeste 0 -- -- 26
2019-05-27 13:00:00 26.7 10 Sudoeste 23 Sudoeste 0 -- -- 28
2019-05-27 12:00:00 25.2 6 Noroeste 15 Noroeste 0 -- -- 29
2019-05-27 11:00:00 23.3 6 Sudeste 17 Este 0 -- -- 32
2019-05-27 10:00:00 21.9 9 Sudeste 13 Sudeste 0 -- -- 32
2019-05-27 09:00:00 19.7 5 Nordeste 11 Sudeste 0 -- -- 36
2019-05-27 08:00:00 16.1 7 Este 10 Este 0 -- -- 45
2019-05-27 07:00:00 14.2 2 Norte 16 Nordeste 0 -- -- 50
2019-05-27 06:00:00 15.4 8 Nordeste 14 Nordeste 0 -- -- 45
2019-05-27 05:00:00 16.7 0 Calma 24 Nordeste 0 -- -- 43
2019-05-27 04:00:00 17.3 19 Nordeste 23 Nordeste 0 -- -- 43
2019-05-27 03:00:00 18.3 17 Nordeste 20 Nordeste 0 -- -- 41
2019-05-27 02:00:00 18.7 9 Nordeste 19 Norte 0 -- -- 40
2019-05-27 01:00:00 19.8 9 Norte 14 Norte 0 -- -- 37
2019-05-27 00:00:00 19.8 10 Norte 19 Norte 0 -- -- 33
2019-05-26 23:00:00 19.8 8 Este 13 Nordeste 0 -- -- 35
2019-05-26 22:00:00 22.6 10 Este 15 Norte 0 -- -- 27
2019-05-26 21:00:00 25.2 10 Norte 27 Noroeste 0 -- -- 28
2019-05-26 20:00:00 26 10 Norte 26 Noroeste 0 -- -- 27
2019-05-26 19:00:00 26.5 12 Norte 28 Noroeste 0 -- -- 23
2019-05-26 18:00:00 26.5 13 Norte 30 Nordeste 0 -- -- 20
2019-05-26 17:00:00 26.3 12 Norte 28 Norte 0 -- -- 20
2019-05-26 16:00:00 26.1 15 Noroeste 34 Nordeste 0 -- -- 20
2019-05-26 15:00:00 25 11 Noroeste 31 Noroeste 0 -- -- 23
2019-05-26 14:00:00 23.8 8 Nordeste 28 Este 0 -- -- 25
2019-05-26 13:00:00 22.4 8 Nordeste 26 Nordeste 0 -- -- 27
2019-05-26 12:00:00 20.6 9 Norte 24 Noroeste 0 -- -- 32
2019-05-26 11:00:00 19.1 10 Este 22 Nordeste 0 -- -- 40
2019-05-26 10:00:00 17.5 13 Nordeste 23 Nordeste 0 -- -- 47
2019-05-26 09:00:00 16 9 Nordeste 18 Este 0 -- -- 53
2019-05-26 08:00:00 13.9 7 Este 13 Nordeste 0 -- -- 56
2019-05-26 07:00:00 12.3 6 Nordeste 10 Este 0 -- -- 61
2019-05-26 06:00:00 12.7 6 Nordeste 11 Nordeste 0 -- -- 61
2019-05-26 05:00:00 13 3 Nordeste 16 Este 0 -- -- 58
2019-05-26 04:00:00 15.6 13 Este 18 Este 0 -- -- 48
2019-05-26 03:00:00 16 12 Este 22 Nordeste 0 -- -- 45
2019-05-26 02:00:00 16.4 9 Nordeste 21 Norte 0 -- -- 44
2019-05-26 01:00:00 18.2 14 Norte 23 Norte 0 -- -- 39
2019-05-26 00:00:00 16.7 8 Nordeste 9 Nordeste 0 -- -- 44
2019-05-25 23:00:00 17.1 5 Nordeste 7 Nordeste 0 -- -- 46
2019-05-25 22:00:00 19.6 5 Nordeste 14 Nordeste 0 -- -- 38
2019-05-25 21:00:00 22.4 8 Nordeste 22 Norte 0 -- -- 31
2019-05-25 20:00:00 23.4 12 Nordeste 25 Nordeste 0 -- -- 29
2019-05-25 19:00:00 23.8 15 Nordeste 27 Nordeste 0 -- -- 28
2019-05-25 18:00:00 23.8 15 Norte 28 Norte 0 -- -- 29
2019-05-25 17:00:00 23.6 9 Nordeste 39 Este 0 -- -- 29
2019-05-25 16:00:00 23.4 10 Norte 32 Norte 0 -- -- 30
2019-05-25 15:00:00 21.8 14 Norte 35 Nordeste 0 -- -- 34
2019-05-25 14:00:00 21 19 Nordeste 40 Nordeste 0 -- -- 37
2019-05-25 13:00:00 20 24 Nordeste 39 Este 0 -- -- 38
2019-05-25 12:00:00 18.3 24 Nordeste 38 Nordeste 0 -- -- 43
2019-05-25 11:00:00 16.7 21 Nordeste 39 Nordeste 0 -- -- 49
2019-05-25 10:00:00 15.4 23 Nordeste 34 Nordeste 0 -- -- 53
2019-05-25 09:00:00 13.9 18 Nordeste 35 Nordeste 0 -- -- 60
2019-05-25 08:00:00 11.8 5 Este 13 Este 0 -- -- 67
2019-05-25 07:00:00 10.9 6 Sudeste 14 Este 0 -- -- 69
2019-05-25 06:00:00 12.1 4 Nordeste 28 Este 0 -- -- 64
2019-05-25 05:00:00 12.7 15 Nordeste 23 Nordeste 0 -- -- 63
2019-05-25 04:00:00 13.6 17 Nordeste 26 Este 0 -- -- 72
2019-05-25 03:00:00 14.3 13 Nordeste 31 Este 0 -- -- 70
2019-05-25 02:00:00 15.3 19 Este 29 Este 0 -- -- 70
2019-05-25 01:00:00 15.9 10 Este 18 Nordeste 0 -- -- 63
2019-05-25 00:00:00 17.1 6 Este 17 Nordeste 0 -- -- 46
2019-05-24 23:00:00 18.4 9 Este 14 Este 0 -- -- 42
2019-05-24 22:00:00 20.2 9 Este 27 Nordeste 0 -- -- 39
2019-05-24 21:00:00 22.3 13 Nordeste 33 Este 0 -- -- 36
2019-05-24 20:00:00 23.9 14 Nordeste 28 Nordeste 0 -- -- 31
2019-05-24 19:00:00 24.8 16 Norte 29 Nordeste 0 -- -- 29
2019-05-24 18:00:00 25.5 13 Norte 31 Norte 0 -- -- 28
2019-05-24 17:00:00 25.1 17 Norte 37 Norte 0 -- -- 33
2019-05-24 16:00:00 24.5 10 Norte 27 Norte 0 -- -- 37
2019-05-24 15:00:00 23.8 5 Nordeste 27 Nordeste 0 -- -- 37
2019-05-24 14:00:00 23.7 7 Este 18 Nordeste 0 -- -- 38
2019-05-24 13:00:00 22.6 6 Nordeste 19 Nordeste 0 -- -- 42
2019-05-24 12:00:00 20.2 6 Sudoeste 14 Oeste 0 -- -- 54
2019-05-24 11:00:00 18.1 9 Oeste 21 Sudoeste 0 -- -- 64
2019-05-24 10:00:00 15.7 8 Noroeste 13 Noroeste 0 -- -- 72
2019-05-24 09:00:00 14.6 0 Calma 3 Nordeste 0 -- -- 76
2019-05-24 08:00:00 13.7 0 Calma 7 Oeste 0 -- -- 77
2019-05-24 07:00:00 13.5 6 Oeste 9 Oeste 0 -- -- 75
2019-05-24 06:00:00 14.5 5 Oeste 12 Oeste 0 -- -- 69
2019-05-24 05:00:00 14.8 5 Oeste 9 Oeste 0 -- -- 62
2019-05-24 04:00:00 15.9 6 Oeste 10 Oeste 0 -- -- 56
2019-05-24 03:00:00 16.4 5 Sudoeste 13 Oeste 0 -- -- 51
2019-05-24 02:00:00 16.5 0 Calma 13 Oeste 0 -- -- 50
2019-05-24 01:00:00 17.9 7 Noroeste 12 Oeste 0 -- -- 42
2019-05-24 00:00:00 18.4 2 Noroeste 10 Oeste 0 -- -- 42
2019-05-23 23:00:00 20.8 6 Noroeste 13 Noroeste 0 -- -- 36
2019-05-23 22:00:00 22.5 9 Noroeste 21 Noroeste 0 -- -- 35
2019-05-23 21:00:00 24.8 15 Noroeste 25 Noroeste 0 -- -- 32
2019-05-23 20:00:00 27.2 14 Oeste 29 Oeste 0 -- -- 28
2019-05-23 19:00:00 27.3 19 Oeste 32 Oeste 0 -- -- 27
2019-05-23 18:00:00 28 18 Oeste 33 Oeste 0 -- -- 27
2019-05-23 17:00:00 28.6 15 Oeste 30 Oeste 0 -- -- 24
2019-05-23 16:00:00 27.7 13 Sudoeste 32 Oeste 0 -- -- 28
2019-05-23 15:00:00 27.1 15 Oeste 30 Oeste 0 -- -- 29
2019-05-23 14:00:00 26.6 12 Oeste 27 Sudoeste 0 -- -- 32
2019-05-23 13:00:00 25.4 9 Oeste 22 Oeste 0 -- -- 35
2019-05-23 12:00:00 24.5 8 Noroeste 16 Noroeste 0 -- -- 37
2019-05-23 11:00:00 22.6 8 Oeste 16 Oeste 0 -- -- 44
2019-05-23 10:00:00 19.6 9 Oeste 15 Sudoeste 0 -- -- 53
2019-05-23 09:00:00 17.2 5 Oeste 8 Oeste 0 -- -- 56
2019-05-23 08:00:00 14.1 3 Oeste 8 Oeste 0 -- -- 63
2019-05-23 07:00:00 13 2 Oeste 7 Oeste 0 -- -- 64
2019-05-23 06:00:00 13.6 4 Oeste 6 Sudoeste 0 -- -- 61
2019-05-23 05:00:00 14 3 Oeste 8 Oeste 0 -- -- 59
2019-05-23 04:00:00 14.3 0 Calma 3 Sudoeste 0 -- -- 60
2019-05-23 03:00:00 14.9 2 Norte 3 Oeste 0 -- -- 58
2019-05-23 02:00:00 15.8 0 Calma 3 Norte 0 -- -- 52
2019-05-23 01:00:00 17 0 Calma 5 Sudeste 0 -- -- 48
2019-05-23 00:00:00 18.9 3 Este 12 Noroeste 0 -- -- 41
2019-05-22 23:00:00 21.2 8 Norte 11 Noroeste 0 -- -- 34
2019-05-22 22:00:00 21.5 5 Noroeste 7 Oeste 0 -- -- 35
2019-05-22 21:00:00 25.4 6 Oeste 17 Oeste 0 -- -- 28
2019-05-22 20:00:00 26.7 10 Oeste 22 Oeste 0 -- -- 26
2019-05-22 19:00:00 26.8 8 Oeste 18 Oeste 0 -- -- 24
2019-05-22 18:00:00 27.4 12 Oeste 25 Oeste 0 -- -- 24
2019-05-22 17:00:00 26.8 6 Noroeste 23 Oeste 0 -- -- 24
2019-05-22 16:00:00 25.5 5 Sudeste 23 Noroeste 0 -- -- 27
2019-05-22 15:00:00 24.8 5 Nordeste 19 Oeste 0 -- -- 27
2019-05-22 14:00:00 25 3 Sudoeste 25 Oeste 0 -- -- 27
2019-05-22 13:00:00 25.2 9 Oeste 21 Oeste 0 -- -- 27
2019-05-22 12:00:00 24.2 7 Sudoeste 16 Oeste 0 -- -- 31
2019-05-22 11:00:00 22.3 6 Sudoeste 11 Sur 0 -- -- 38
2019-05-22 10:00:00 20 3 Norte 7 Este 0 -- -- 44
2019-05-22 09:00:00 17.9 2 Este 6 Este 0 -- -- 49
2019-05-22 08:00:00 13.1 3 Este 4 Nordeste 0 -- -- 64
2019-05-22 07:00:00 11.3 0 Calma 5 Noroeste 0 -- -- 71
2019-05-22 06:00:00 12 5 Noroeste 6 Noroeste 0 -- -- 67
2019-05-22 05:00:00 12.5 2 Norte 5 Norte 0 -- -- 61
2019-05-22 04:00:00 14.5 2 Sudoeste 12 Norte 0 -- -- 55
2019-05-22 03:00:00 14.7 3 Norte 9 Noroeste 0 -- -- 54
2019-05-22 02:00:00 15.6 8 Noroeste 12 Noroeste 0 -- -- 48
2019-05-22 01:00:00 14.9 3 Noroeste -- -- 0 -- -- 54
2019-05-22 00:00:00 15.9 0 Calma 6 Noroeste 0 -- -- 51
2019-05-21 23:00:00 17.4 5 Norte 7 Noroeste 0 -- -- 44
2019-05-21 22:00:00 19.2 3 Noroeste 12 Oeste 0 -- -- 40
2019-05-21 21:00:00 22.3 9 Oeste 20 Oeste 0 -- -- 33
2019-05-21 20:00:00 24 11 Oeste 23 Oeste 0 -- -- 29
2019-05-21 19:00:00 24.3 11 Noroeste 24 Noroeste 0 -- -- 29
2019-05-21 18:00:00 24.9 9 Oeste 25 Oeste 0 -- -- 28
2019-05-21 17:00:00 24.8 9 Oeste 36 Oeste 0 -- -- 28
2019-05-21 16:00:00 22.8 6 Sudoeste 23 Oeste 0 -- -- 32
2019-05-21 15:00:00 22.7 10 Noroeste 26 Oeste 0 -- -- 32
2019-05-21 14:00:00 22.5 7 Sur 22 Sudoeste 0 -- -- 33
2019-05-21 13:00:00 22.5 11 Sudoeste 29 Sur 0 -- -- 35
2019-05-21 12:00:00 21.3 7 Oeste 21 Noroeste 0 -- -- 35
2019-05-21 11:00:00 19 9 Noroeste 16 Oeste 0 -- -- 41
2019-05-21 10:00:00 16.7 8 Oeste 16 Oeste 0 -- -- 47
2019-05-21 09:00:00 14.6 8 Oeste 13 Oeste 0 -- -- 54
2019-05-21 08:00:00 11.7 4 Noroeste 6 Oeste 0 -- -- 67
2019-05-21 07:00:00 12.5 4 Oeste 5 Oeste 0 -- -- 61
2019-05-21 06:00:00 12.6 2 Sudoeste 5 Sudoeste 0 -- -- 65
2019-05-21 05:00:00 13 2 Oeste 5 Oeste 0 -- -- 62
2019-05-21 04:00:00 13.8 0 Calma 3 Sur 0 -- -- 57
2019-05-21 03:00:00 14.8 0 Calma 10 Sudoeste 0 -- -- 49
2019-05-21 02:00:00 16.5 5 Nordeste 9 Nordeste 0 -- -- 49
2019-05-21 01:00:00 16.9 7 Nordeste 28 Noroeste 0 -- -- 47
2019-05-21 00:00:00 17.8 2 Norte 12 Noroeste 0 -- -- 40